sensor_id;sensor_type;location;lat;lon;timestamp;P1;durP1;ratioP1;P2;durP2;ratioP2
1062;SDS011;520;50.932;6.962;2024-01-25T00:01:20;18.53;;;5.00;;
1062;SDS011;520;50.932;6.962;2024-01-25T00:03:47;23.33;;;5.33;;
1062;SDS011;520;50.932;6.962;2024-01-25T00:06:23;28.60;;;6.57;;
1062;SDS011;520;50.932;6.962;2024-01-25T00:08:54;25.87;;;5.30;;
1062;SDS011;520;50.932;6.962;2024-01-25T00:11:33;24.10;;;5.30;;
1062;SDS011;520;50.932;6.962;2024-01-25T00:14:05;16.90;;;5.73;;
1062;SDS011;520;50.932;6.962;2024-01-25T00:16:32;16.60;;;5.20;;
1062;SDS011;520;50.932;6.962;2024-01-25T00:18:59;24.53;;;4.63;;
1062;SDS011;520;50.932;6.962;2024-01-25T00:21:29;18.07;;;5.73;;
1062;SDS011;520;50.932;6.962;2024-01-25T00:24:04;19.00;;;5.37;;
1062;SDS011;520;50.932;6.962;2024-01-25T00:26:33;27.00;;;6.87;;
1062;SDS011;520;50.932;6.962;2024-01-25T00:29:01;25.33;;;5.80;;
1062;SDS011;520;50.932;6.962;2024-01-25T00:31:29;21.23;;;6.07;;
1062;SDS011;520;50.932;6.962;2024-01-25T00:33:57;20.23;;;5.10;;
1062;SDS011;520;50.932;6.962;2024-01-25T00:36:25;30.40;;;6.00;;
1062;SDS011;520;50.932;6.962;2024-01-25T00:38:55;20.17;;;5.20;;
1062;SDS011;520;50.932;6.962;2024-01-25T00:41:32;20.57;;;5.77;;
1062;SDS011;520;50.932;6.962;2024-01-25T00:44:00;14.67;;;5.50;;
1062;SDS011;520;50.932;6.962;2024-01-25T00:46:33;20.93;;;5.00;;
1062;SDS011;520;50.932;6.962;2024-01-25T00:49:04;23.43;;;5.47;;
1062;SDS011;520;50.932;6.962;2024-01-25T00:51:32;16.63;;;4.33;;
1062;SDS011;520;50.932;6.962;2024-01-25T00:54:00;30.10;;;6.83;;
1062;SDS011;520;50.932;6.962;2024-01-25T00:56:28;21.60;;;5.93;;
1062;SDS011;520;50.932;6.962;2024-01-25T00:58:55;18.43;;;4.73;;
1062;SDS011;520;50.932;6.962;2024-01-25T01:01:24;25.23;;;5.97;;
1062;SDS011;520;50.932;6.962;2024-01-25T01:03:55;26.10;;;5.50;;
1062;SDS011;520;50.932;6.962;2024-01-25T01:06:24;30.97;;;5.63;;
1062;SDS011;520;50.932;6.962;2024-01-25T01:08:53;23.43;;;5.40;;
1062;SDS011;520;50.932;6.962;2024-01-25T01:11:23;22.53;;;5.97;;
1062;SDS011;520;50.932;6.962;2024-01-25T01:13:50;14.47;;;4.40;;
1062;SDS011;520;50.932;6.962;2024-01-25T01:16:21;20.53;;;5.27;;
1062;SDS011;520;50.932;6.962;2024-01-25T01:18:53;18.53;;;4.97;;
1062;SDS011;520;50.932;6.962;2024-01-25T01:21:25;22.07;;;5.20;;
1062;SDS011;520;50.932;6.962;2024-01-25T01:23:57;18.73;;;5.30;;
1062;SDS011;520;50.932;6.962;2024-01-25T01:26:28;16.37;;;4.83;;
1062;SDS011;520;50.932;6.962;2024-01-25T01:28:58;19.43;;;4.93;;
1062;SDS011;520;50.932;6.962;2024-01-25T01:31:27;22.50;;;5.43;;
1062;SDS011;520;50.932;6.962;2024-01-25T01:33:57;21.07;;;5.50;;
1062;SDS011;520;50.932;6.962;2024-01-25T01:36:33;16.73;;;4.80;;
1062;SDS011;520;50.932;6.962;2024-01-25T01:39:04;21.47;;;5.07;;
1062;SDS011;520;50.932;6.962;2024-01-25T01:41:38;21.80;;;5.60;;
1062;SDS011;520;50.932;6.962;2024-01-25T01:44:10;19.70;;;6.10;;
1062;SDS011;520;50.932;6.962;2024-01-25T01:46:39;20.40;;;4.43;;
1062;SDS011;520;50.932;6.962;2024-01-25T01:49:13;24.10;;;5.30;;
1062;SDS011;520;50.932;6.962;2024-01-25T01:51:41;23.53;;;7.33;;
1062;SDS011;520;50.932;6.962;2024-01-25T01:54:18;18.33;;;4.90;;
1062;SDS011;520;50.932;6.962;2024-01-25T01:56:45;27.80;;;6.73;;
1062;SDS011;520;50.932;6.962;2024-01-25T01:59:12;21.70;;;5.40;;
1062;SDS011;520;50.932;6.962;2024-01-25T02:01:39;21.70;;;4.83;;
1062;SDS011;520;50.932;6.962;2024-01-25T02:04:08;23.37;;;7.63;;
1062;SDS011;520;50.932;6.962;2024-01-25T02:06:38;18.63;;;5.80;;
1062;SDS011;520;50.932;6.962;2024-01-25T02:09:09;14.80;;;4.50;;
1062;SDS011;520;50.932;6.962;2024-01-25T02:11:41;24.07;;;5.77;;
1062;SDS011;520;50.932;6.962;2024-01-25T02:14:08;22.40;;;4.93;;
1062;SDS011;520;50.932;6.962;2024-01-25T02:16:38;27.87;;;6.30;;
1062;SDS011;520;50.932;6.962;2024-01-25T02:19:13;14.53;;;4.47;;
1062;SDS011;520;50.932;6.962;2024-01-25T02:21:40;22.70;;;5.10;;
1062;SDS011;520;50.932;6.962;2024-01-25T02:24:08;24.30;;;5.40;;
1062;SDS011;520;50.932;6.962;2024-01-25T02:26:35;23.50;;;5.37;;
1062;SDS011;520;50.932;6.962;2024-01-25T02:29:05;16.30;;;4.80;;
1062;SDS011;520;50.932;6.962;2024-01-25T02:31:34;19.83;;;4.93;;
1062;SDS011;520;50.932;6.962;2024-01-25T02:34:03;18.73;;;4.97;;
1062;SDS011;520;50.932;6.962;2024-01-25T02:36:34;27.70;;;5.30;;
1062;SDS011;520;50.932;6.962;2024-01-25T02:39:05;18.50;;;6.10;;
1062;SDS011;520;50.932;6.962;2024-01-25T02:41:32;23.50;;;4.80;;
1062;SDS011;520;50.932;6.962;2024-01-25T02:44:03;23.33;;;6.20;;
1062;SDS011;520;50.932;6.962;2024-01-25T02:46:34;16.73;;;5.50;;
1062;SDS011;520;50.932;6.962;2024-01-25T02:49:05;21.60;;;5.20;;
1062;SDS011;520;50.932;6.962;2024-01-25T02:51:34;19.57;;;4.87;;
1062;SDS011;520;50.932;6.962;2024-01-25T02:54:01;16.10;;;5.00;;
1062;SDS011;520;50.932;6.962;2024-01-25T02:56:29;16.33;;;5.40;;
1062;SDS011;520;50.932;6.962;2024-01-25T02:59:01;19.27;;;5.63;;
1062;SDS011;520;50.932;6.962;2024-01-25T03:01:28;19.97;;;4.83;;
1062;SDS011;520;50.932;6.962;2024-01-25T03:04:05;19.50;;;5.57;;
1062;SDS011;520;50.932;6.962;2024-01-25T03:06:35;22.77;;;5.53;;
1062;SDS011;520;50.932;6.962;2024-01-25T03:09:02;19.10;;;5.60;;
1062;SDS011;520;50.932;6.962;2024-01-25T03:11:36;20.43;;;5.80;;
1062;SDS011;520;50.932;6.962;2024-01-25T03:14:03;23.73;;;6.50;;
1062;SDS011;520;50.932;6.962;2024-01-25T03:16:30;18.17;;;4.80;;
1062;SDS011;520;50.932;6.962;2024-01-25T03:18:58;22.80;;;6.30;;
1062;SDS011;520;50.932;6.962;2024-01-25T03:21:28;18.60;;;4.23;;
1062;SDS011;520;50.932;6.962;2024-01-25T03:23:55;20.50;;;5.80;;
1062;SDS011;520;50.932;6.962;2024-01-25T03:26:29;16.13;;;6.27;;
1062;SDS011;520;50.932;6.962;2024-01-25T03:29:02;20.93;;;5.50;;
1062;SDS011;520;50.932;6.962;2024-01-25T03:31:29;21.10;;;4.90;;
1062;SDS011;520;50.932;6.962;2024-01-25T03:33:56;21.40;;;5.50;;
1062;SDS011;520;50.932;6.962;2024-01-25T03:36:26;27.53;;;5.90;;
1062;SDS011;520;50.932;6.962;2024-01-25T03:38:53;16.87;;;6.20;;
1062;SDS011;520;50.932;6.962;2024-01-25T03:41:20;21.97;;;5.20;;
1062;SDS011;520;50.932;6.962;2024-01-25T03:43:50;22.87;;;5.83;;
1062;SDS011;520;50.932;6.962;2024-01-25T03:46:18;24.43;;;5.57;;
1062;SDS011;520;50.932;6.962;2024-01-25T03:48:45;17.97;;;4.70;;
1062;SDS011;520;50.932;6.962;2024-01-25T03:51:15;21.00;;;5.60;;
1062;SDS011;520;50.932;6.962;2024-01-25T03:53:42;23.23;;;5.03;;
1062;SDS011;520;50.932;6.962;2024-01-25T03:56:12;15.70;;;4.50;;
1062;SDS011;520;50.932;6.962;2024-01-25T03:58:40;23.67;;;7.37;;
1062;SDS011;520;50.932;6.962;2024-01-25T04:01:07;19.53;;;5.30;;
1062;SDS011;520;50.932;6.962;2024-01-25T04:03:35;26.07;;;5.43;;
1062;SDS011;520;50.932;6.962;2024-01-25T04:06:03;26.13;;;5.50;;
1062;SDS011;520;50.932;6.962;2024-01-25T04:08:36;27.40;;;6.37;;
1062;SDS011;520;50.932;6.962;2024-01-25T04:11:03;17.30;;;6.00;;
1062;SDS011;520;50.932;6.962;2024-01-25T04:13:37;23.40;;;5.97;;
1062;SDS011;520;50.932;6.962;2024-01-25T04:16:04;20.50;;;6.10;;
1062;SDS011;520;50.932;6.962;2024-01-25T04:18:35;29.90;;;6.33;;
1062;SDS011;520;50.932;6.962;2024-01-25T04:21:04;25.13;;;6.43;;
1062;SDS011;520;50.932;6.962;2024-01-25T04:23:31;21.13;;;5.70;;
1062;SDS011;520;50.932;6.962;2024-01-25T04:25:59;20.60;;;5.03;;
1062;SDS011;520;50.932;6.962;2024-01-25T04:28:26;20.20;;;5.03;;
1062;SDS011;520;50.932;6.962;2024-01-25T04:30:53;19.17;;;5.60;;
1062;SDS011;520;50.932;6.962;2024-01-25T04:33:21;19.13;;;5.60;;
1062;SDS011;520;50.932;6.962;2024-01-25T04:35:50;21.93;;;6.30;;
1062;SDS011;520;50.932;6.962;2024-01-25T04:38:18;17.00;;;5.57;;
1062;SDS011;520;50.932;6.962;2024-01-25T04:40:47;22.03;;;6.50;;
1062;SDS011;520;50.932;6.962;2024-01-25T04:43:17;24.43;;;6.20;;
1062;SDS011;520;50.932;6.962;2024-01-25T04:45:44;22.43;;;5.97;;
1062;SDS011;520;50.932;6.962;2024-01-25T04:48:14;20.97;;;5.73;;
1062;SDS011;520;50.932;6.962;2024-01-25T04:50:48;17.47;;;5.80;;
1062;SDS011;520;50.932;6.962;2024-01-25T04:53:17;21.97;;;5.43;;
1062;SDS011;520;50.932;6.962;2024-01-25T04:55:47;19.80;;;6.60;;
1062;SDS011;520;50.932;6.962;2024-01-25T04:58:14;25.30;;;5.57;;
1062;SDS011;520;50.932;6.962;2024-01-25T05:00:42;21.07;;;5.80;;
1062;SDS011;520;50.932;6.962;2024-01-25T05:03:09;24.03;;;6.27;;
1062;SDS011;520;50.932;6.962;2024-01-25T05:05:39;25.17;;;4.90;;
1062;SDS011;520;50.932;6.962;2024-01-25T05:08:07;24.37;;;6.40;;
1062;SDS011;520;50.932;6.962;2024-01-25T05:10:34;24.17;;;5.40;;
1062;SDS011;520;50.932;6.962;2024-01-25T05:13:08;22.27;;;5.80;;
1062;SDS011;520;50.932;6.962;2024-01-25T05:15:38;18.93;;;5.13;;
1062;SDS011;520;50.932;6.962;2024-01-25T05:18:08;20.47;;;5.43;;
1062;SDS011;520;50.932;6.962;2024-01-25T05:20:35;21.17;;;5.10;;
1062;SDS011;520;50.932;6.962;2024-01-25T05:23:04;17.17;;;5.63;;
1062;SDS011;520;50.932;6.962;2024-01-25T05:25:35;15.83;;;5.07;;
1062;SDS011;520;50.932;6.962;2024-01-25T05:28:04;23.60;;;5.20;;
1062;SDS011;520;50.932;6.962;2024-01-25T05:30:32;27.00;;;6.00;;
1062;SDS011;520;50.932;6.962;2024-01-25T05:32:59;12.47;;;4.37;;
1062;SDS011;520;50.932;6.962;2024-01-25T05:35:27;24.70;;;5.93;;
1062;SDS011;520;50.932;6.962;2024-01-25T05:37:57;22.90;;;6.07;;
1062;SDS011;520;50.932;6.962;2024-01-25T05:40:27;17.20;;;4.80;;
1062;SDS011;520;50.932;6.962;2024-01-25T05:42:54;20.00;;;5.00;;
1062;SDS011;520;50.932;6.962;2024-01-25T05:45:23;20.23;;;4.63;;
1062;SDS011;520;50.932;6.962;2024-01-25T05:47:50;22.53;;;5.57;;
1062;SDS011;520;50.932;6.962;2024-01-25T05:50:20;26.10;;;5.60;;
1062;SDS011;520;50.932;6.962;2024-01-25T05:52:48;17.50;;;5.17;;
1062;SDS011;520;50.932;6.962;2024-01-25T05:55:17;16.40;;;4.93;;
1062;SDS011;520;50.932;6.962;2024-01-25T05:57:50;28.20;;;6.70;;
1062;SDS011;520;50.932;6.962;2024-01-25T06:00:17;21.60;;;5.80;;
1062;SDS011;520;50.932;6.962;2024-01-25T06:02:47;25.23;;;6.80;;
1062;SDS011;520;50.932;6.962;2024-01-25T06:05:14;21.27;;;5.73;;
1062;SDS011;520;50.932;6.962;2024-01-25T06:07:42;18.10;;;5.53;;
1062;SDS011;520;50.932;6.962;2024-01-25T06:10:09;25.60;;;5.90;;
1062;SDS011;520;50.932;6.962;2024-01-25T06:12:37;23.13;;;5.23;;
1062;SDS011;520;50.932;6.962;2024-01-25T06:15:04;25.27;;;6.70;;
1062;SDS011;520;50.932;6.962;2024-01-25T06:17:32;28.10;;;7.70;;
1062;SDS011;520;50.932;6.962;2024-01-25T06:19:59;21.60;;;7.03;;
1062;SDS011;520;50.932;6.962;2024-01-25T06:22:26;37.03;;;8.80;;
1062;SDS011;520;50.932;6.962;2024-01-25T06:24:54;21.13;;;5.40;;
1062;SDS011;520;50.932;6.962;2024-01-25T06:27:21;28.63;;;13.03;;
1062;SDS011;520;50.932;6.962;2024-01-25T06:29:48;25.70;;;7.07;;
1062;SDS011;520;50.932;6.962;2024-01-25T06:32:16;14.00;;;4.50;;
1062;SDS011;520;50.932;6.962;2024-01-25T06:34:47;13.50;;;5.10;;
1062;SDS011;520;50.932;6.962;2024-01-25T06:37:16;19.27;;;5.40;;
1062;SDS011;520;50.932;6.962;2024-01-25T06:39:45;23.07;;;5.63;;
1062;SDS011;520;50.932;6.962;2024-01-25T06:42:15;19.93;;;5.60;;
1062;SDS011;520;50.932;6.962;2024-01-25T06:44:45;28.20;;;5.53;;
1062;SDS011;520;50.932;6.962;2024-01-25T06:47:18;20.03;;;5.40;;
1062;SDS011;520;50.932;6.962;2024-01-25T06:49:47;20.50;;;5.60;;
1062;SDS011;520;50.932;6.962;2024-01-25T06:52:18;19.10;;;5.70;;
1062;SDS011;520;50.932;6.962;2024-01-25T06:54:48;25.83;;;5.43;;
1062;SDS011;520;50.932;6.962;2024-01-25T06:57:15;20.80;;;5.43;;
1062;SDS011;520;50.932;6.962;2024-01-25T06:59:46;19.23;;;5.83;;
1062;SDS011;520;50.932;6.962;2024-01-25T07:02:16;16.40;;;5.83;;
1062;SDS011;520;50.932;6.962;2024-01-25T07:04:46;27.17;;;6.43;;
1062;SDS011;520;50.932;6.962;2024-01-25T07:07:16;23.50;;;7.07;;
1062;SDS011;520;50.932;6.962;2024-01-25T07:09:44;17.90;;;5.33;;
1062;SDS011;520;50.932;6.962;2024-01-25T07:12:14;24.67;;;5.17;;
1062;SDS011;520;50.932;6.962;2024-01-25T07:14:44;27.63;;;5.37;;
1062;SDS011;520;50.932;6.962;2024-01-25T07:17:17;19.23;;;5.67;;
1062;SDS011;520;50.932;6.962;2024-01-25T07:19:47;19.10;;;5.77;;
1062;SDS011;520;50.932;6.962;2024-01-25T07:22:15;31.97;;;6.50;;
1062;SDS011;520;50.932;6.962;2024-01-25T07:24:47;17.37;;;5.70;;
1062;SDS011;520;50.932;6.962;2024-01-25T07:27:16;26.63;;;8.47;;
1062;SDS011;520;50.932;6.962;2024-01-25T07:29:44;31.57;;;7.27;;
1062;SDS011;520;50.932;6.962;2024-01-25T07:32:16;26.57;;;5.87;;
1062;SDS011;520;50.932;6.962;2024-01-25T07:34:45;18.90;;;6.00;;
1062;SDS011;520;50.932;6.962;2024-01-25T07:37:12;22.90;;;5.60;;
1062;SDS011;520;50.932;6.962;2024-01-25T07:39:40;20.43;;;6.03;;
1062;SDS011;520;50.932;6.962;2024-01-25T07:42:12;16.97;;;5.07;;
1062;SDS011;520;50.932;6.962;2024-01-25T07:44:47;15.40;;;5.03;;
1062;SDS011;520;50.932;6.962;2024-01-25T07:47:14;26.00;;;6.60;;
1062;SDS011;520;50.932;6.962;2024-01-25T07:49:42;26.37;;;6.43;;
1062;SDS011;520;50.932;6.962;2024-01-25T07:52:13;17.37;;;6.80;;
1062;SDS011;520;50.932;6.962;2024-01-25T07:54:44;24.30;;;7.23;;
1062;SDS011;520;50.932;6.962;2024-01-25T07:57:15;18.13;;;6.90;;
1062;SDS011;520;50.932;6.962;2024-01-25T07:59:42;24.53;;;7.03;;
1062;SDS011;520;50.932;6.962;2024-01-25T08:02:09;12.27;;;5.70;;
1062;SDS011;520;50.932;6.962;2024-01-25T08:04:40;19.43;;;6.90;;
1062;SDS011;520;50.932;6.962;2024-01-25T08:07:07;19.07;;;6.40;;
1062;SDS011;520;50.932;6.962;2024-01-25T08:09:38;22.00;;;8.27;;
1062;SDS011;520;50.932;6.962;2024-01-25T08:12:07;22.13;;;5.90;;
1062;SDS011;520;50.932;6.962;2024-01-25T08:14:36;21.60;;;6.80;;
1062;SDS011;520;50.932;6.962;2024-01-25T08:17:12;16.30;;;6.90;;
1062;SDS011;520;50.932;6.962;2024-01-25T08:19:58;23.53;;;6.07;;
1062;SDS011;520;50.932;6.962;2024-01-25T08:22:30;25.57;;;7.60;;
1062;SDS011;520;50.932;6.962;2024-01-25T08:25:02;22.83;;;7.13;;
1062;SDS011;520;50.932;6.962;2024-01-25T08:27:32;24.23;;;9.23;;
1062;SDS011;520;50.932;6.962;2024-01-25T08:30:04;22.03;;;7.47;;
1062;SDS011;520;50.932;6.962;2024-01-25T08:32:34;22.57;;;8.03;;
1062;SDS011;520;50.932;6.962;2024-01-25T08:35:07;21.90;;;8.30;;
1062;SDS011;520;50.932;6.962;2024-01-25T08:37:35;19.93;;;6.97;;
1062;SDS011;520;50.932;6.962;2024-01-25T08:40:09;28.53;;;7.90;;
1062;SDS011;520;50.932;6.962;2024-01-25T08:42:40;28.83;;;8.50;;
1062;SDS011;520;50.932;6.962;2024-01-25T08:45:09;23.90;;;8.20;;
1062;SDS011;520;50.932;6.962;2024-01-25T08:47:39;20.63;;;7.27;;
1062;SDS011;520;50.932;6.962;2024-01-25T08:50:10;26.10;;;8.20;;
1062;SDS011;520;50.932;6.962;2024-01-25T08:52:40;17.13;;;7.37;;
1062;SDS011;520;50.932;6.962;2024-01-25T08:55:07;25.20;;;8.43;;
1062;SDS011;520;50.932;6.962;2024-01-25T08:57:42;30.93;;;8.33;;
1062;SDS011;520;50.932;6.962;2024-01-25T09:00:09;17.53;;;7.90;;
1062;SDS011;520;50.932;6.962;2024-01-25T09:02:39;26.53;;;7.87;;
1062;SDS011;520;50.932;6.962;2024-01-25T09:05:12;27.43;;;9.00;;
1062;SDS011;520;50.932;6.962;2024-01-25T09:07:42;23.33;;;7.93;;
1062;SDS011;520;50.932;6.962;2024-01-25T09:10:11;18.33;;;6.83;;
1062;SDS011;520;50.932;6.962;2024-01-25T09:12:40;19.47;;;6.47;;
1062;SDS011;520;50.932;6.962;2024-01-25T09:15:09;22.50;;;8.73;;
1062;SDS011;520;50.932;6.962;2024-01-25T09:17:44;24.23;;;7.53;;
1062;SDS011;520;50.932;6.962;2024-01-25T09:20:15;20.80;;;7.00;;
1062;SDS011;520;50.932;6.962;2024-01-25T09:22:49;29.63;;;8.93;;
1062;SDS011;520;50.932;6.962;2024-01-25T09:25:29;26.93;;;7.60;;
1062;SDS011;520;50.932;6.962;2024-01-25T09:28:04;28.63;;;8.60;;
1062;SDS011;520;50.932;6.962;2024-01-25T09:30:35;22.33;;;7.80;;
1062;SDS011;520;50.932;6.962;2024-01-25T09:33:04;21.77;;;8.70;;
1062;SDS011;520;50.932;6.962;2024-01-25T09:35:46;24.70;;;10.17;;
1062;SDS011;520;50.932;6.962;2024-01-25T09:38:16;27.53;;;8.97;;
1062;SDS011;520;50.932;6.962;2024-01-25T09:40:50;19.60;;;8.63;;
1062;SDS011;520;50.932;6.962;2024-01-25T09:43:22;27.10;;;8.87;;
1062;SDS011;520;50.932;6.962;2024-01-25T09:45:55;22.80;;;8.33;;
1062;SDS011;520;50.932;6.962;2024-01-25T09:48:28;31.07;;;10.80;;
1062;SDS011;520;50.932;6.962;2024-01-25T09:50:58;18.73;;;8.63;;
1062;SDS011;520;50.932;6.962;2024-01-25T09:53:36;22.10;;;8.00;;
1062;SDS011;520;50.932;6.962;2024-01-25T09:56:11;23.80;;;8.37;;
1062;SDS011;520;50.932;6.962;2024-01-25T09:58:50;25.80;;;9.23;;
1062;SDS011;520;50.932;6.962;2024-01-25T10:01:20;29.07;;;9.80;;
1062;SDS011;520;50.932;6.962;2024-01-25T10:03:50;25.80;;;8.53;;
1062;SDS011;520;50.932;6.962;2024-01-25T10:06:28;22.30;;;8.90;;
1062;SDS011;520;50.932;6.962;2024-01-25T10:08:56;25.20;;;9.20;;
1062;SDS011;520;50.932;6.962;2024-01-25T10:11:35;30.53;;;9.53;;
1062;SDS011;520;50.932;6.962;2024-01-25T10:14:10;27.57;;;9.40;;
1062;SDS011;520;50.932;6.962;2024-01-25T10:16:37;25.13;;;9.60;;
1062;SDS011;520;50.932;6.962;2024-01-25T10:19:08;29.37;;;8.63;;
1062;SDS011;520;50.932;6.962;2024-01-25T10:21:40;19.93;;;9.03;;
1062;SDS011;520;50.932;6.962;2024-01-25T10:24:13;21.50;;;8.23;;
1062;SDS011;520;50.932;6.962;2024-01-25T10:26:43;24.87;;;9.10;;
1062;SDS011;520;50.932;6.962;2024-01-25T10:29:10;16.90;;;7.20;;
1062;SDS011;520;50.932;6.962;2024-01-25T10:31:41;21.17;;;7.47;;
1062;SDS011;520;50.932;6.962;2024-01-25T10:34:08;25.33;;;8.50;;
1062;SDS011;520;50.932;6.962;2024-01-25T10:37:07;23.83;;;8.30;;
1062;SDS011;520;50.932;6.962;2024-01-25T10:39:37;20.20;;;8.37;;
1062;SDS011;520;50.932;6.962;2024-01-25T10:42:09;22.03;;;8.10;;
1062;SDS011;520;50.932;6.962;2024-01-25T10:44:46;18.70;;;7.50;;
1062;SDS011;520;50.932;6.962;2024-01-25T10:47:17;24.77;;;7.80;;
1062;SDS011;520;50.932;6.962;2024-01-25T10:49:53;18.00;;;8.83;;
1062;SDS011;520;50.932;6.962;2024-01-25T10:52:24;26.00;;;8.90;;
1062;SDS011;520;50.932;6.962;2024-01-25T10:54:52;18.67;;;7.37;;
1062;SDS011;520;50.932;6.962;2024-01-25T10:57:19;22.63;;;7.83;;
1062;SDS011;520;50.932;6.962;2024-01-25T10:59:49;28.30;;;9.43;;
1062;SDS011;520;50.932;6.962;2024-01-25T11:02:20;29.60;;;8.73;;
1062;SDS011;520;50.932;6.962;2024-01-25T11:04:54;26.63;;;9.23;;
1062;SDS011;520;50.932;6.962;2024-01-25T11:07:22;21.17;;;7.93;;
1062;SDS011;520;50.932;6.962;2024-01-25T11:09:51;27.33;;;10.17;;
1062;SDS011;520;50.932;6.962;2024-01-25T11:12:20;25.13;;;8.43;;
1062;SDS011;520;50.932;6.962;2024-01-25T11:14:54;22.50;;;9.40;;
1062;SDS011;520;50.932;6.962;2024-01-25T11:17:23;25.50;;;8.63;;
1062;SDS011;520;50.932;6.962;2024-01-25T11:19:53;17.97;;;7.30;;
1062;SDS011;520;50.932;6.962;2024-01-25T11:22:33;25.53;;;7.93;;
1062;SDS011;520;50.932;6.962;2024-01-25T11:25:10;22.00;;;7.37;;
1062;SDS011;520;50.932;6.962;2024-01-25T11:27:41;20.90;;;8.27;;
1062;SDS011;520;50.932;6.962;2024-01-25T11:30:08;18.40;;;7.83;;
1062;SDS011;520;50.932;6.962;2024-01-25T11:32:38;21.70;;;8.17;;
1062;SDS011;520;50.932;6.962;2024-01-25T11:35:11;16.77;;;7.20;;
1062;SDS011;520;50.932;6.962;2024-01-25T11:37:50;24.40;;;6.90;;
1062;SDS011;520;50.932;6.962;2024-01-25T11:40:22;21.83;;;6.53;;
1062;SDS011;520;50.932;6.962;2024-01-25T11:42:51;18.57;;;7.03;;
1062;SDS011;520;50.932;6.962;2024-01-25T11:45:20;17.57;;;6.60;;
1062;SDS011;520;50.932;6.962;2024-01-25T11:47:50;18.17;;;6.50;;
1062;SDS011;520;50.932;6.962;2024-01-25T11:50:20;23.93;;;8.10;;
1062;SDS011;520;50.932;6.962;2024-01-25T11:52:49;22.80;;;8.23;;
1062;SDS011;520;50.932;6.962;2024-01-25T11:55:17;22.73;;;6.27;;
1062;SDS011;520;50.932;6.962;2024-01-25T11:57:47;17.10;;;6.27;;
1062;SDS011;520;50.932;6.962;2024-01-25T12:00:18;14.40;;;6.83;;
1062;SDS011;520;50.932;6.962;2024-01-25T12:02:53;12.53;;;5.10;;
1062;SDS011;520;50.932;6.962;2024-01-25T12:05:22;15.30;;;5.50;;
1062;SDS011;520;50.932;6.962;2024-01-25T12:07:56;20.70;;;6.80;;
1062;SDS011;520;50.932;6.962;2024-01-25T12:10:24;25.00;;;6.40;;
1062;SDS011;520;50.932;6.962;2024-01-25T12:12:53;20.10;;;6.10;;
1062;SDS011;520;50.932;6.962;2024-01-25T12:15:22;14.50;;;5.40;;
1062;SDS011;520;50.932;6.962;2024-01-25T12:17:51;19.33;;;6.17;;
1062;SDS011;520;50.932;6.962;2024-01-25T12:20:18;16.30;;;4.63;;
1062;SDS011;520;50.932;6.962;2024-01-25T12:22:48;16.20;;;5.13;;
1062;SDS011;520;50.932;6.962;2024-01-25T12:25:18;17.50;;;4.97;;
1062;SDS011;520;50.932;6.962;2024-01-25T12:27:45;13.90;;;4.87;;
1062;SDS011;520;50.932;6.962;2024-01-25T12:30:17;15.07;;;4.83;;
1062;SDS011;520;50.932;6.962;2024-01-25T12:32:48;23.03;;;5.70;;
1062;SDS011;520;50.932;6.962;2024-01-25T12:35:44;16.93;;;4.10;;
1062;SDS011;520;50.932;6.962;2024-01-25T12:38:39;14.50;;;5.30;;
1062;SDS011;520;50.932;6.962;2024-01-25T12:41:07;15.70;;;4.60;;
1062;SDS011;520;50.932;6.962;2024-01-25T12:43:35;16.27;;;4.97;;
1062;SDS011;520;50.932;6.962;2024-01-25T12:46:04;13.83;;;4.27;;
1062;SDS011;520;50.932;6.962;2024-01-25T12:48:41;14.70;;;5.00;;
1062;SDS011;520;50.932;6.962;2024-01-25T12:51:13;12.87;;;4.73;;
1062;SDS011;520;50.932;6.962;2024-01-25T12:53:44;17.03;;;4.50;;
1062;SDS011;520;50.932;6.962;2024-01-25T12:56:13;19.43;;;4.50;;
1062;SDS011;520;50.932;6.962;2024-01-25T12:58:40;19.70;;;4.43;;
1062;SDS011;520;50.932;6.962;2024-01-25T13:01:09;13.17;;;4.87;;
1062;SDS011;520;50.932;6.962;2024-01-25T13:03:37;14.03;;;4.60;;
1062;SDS011;520;50.932;6.962;2024-01-25T13:06:08;16.17;;;4.63;;
1062;SDS011;520;50.932;6.962;2024-01-25T13:08:35;14.90;;;5.00;;
1062;SDS011;520;50.932;6.962;2024-01-25T13:11:02;20.83;;;5.57;;
1062;SDS011;520;50.932;6.962;2024-01-25T13:13:30;25.20;;;5.03;;
1062;SDS011;520;50.932;6.962;2024-01-25T13:15:58;18.97;;;6.63;;
1062;SDS011;520;50.932;6.962;2024-01-25T13:18:27;10.87;;;5.00;;
1062;SDS011;520;50.932;6.962;2024-01-25T13:20:56;14.17;;;4.33;;
1062;SDS011;520;50.932;6.962;2024-01-25T13:23:23;13.77;;;4.23;;
1062;SDS011;520;50.932;6.962;2024-01-25T13:25:51;16.93;;;5.57;;
1062;SDS011;520;50.932;6.962;2024-01-25T13:28:18;14.13;;;4.60;;
1062;SDS011;520;50.932;6.962;2024-01-25T13:30:50;12.90;;;4.63;;
1062;SDS011;520;50.932;6.962;2024-01-25T13:33:20;13.77;;;5.03;;
1062;SDS011;520;50.932;6.962;2024-01-25T13:35:48;15.10;;;4.40;;
1062;SDS011;520;50.932;6.962;2024-01-25T13:38:18;13.30;;;4.70;;
1062;SDS011;520;50.932;6.962;2024-01-25T13:40:45;14.77;;;4.73;;
1062;SDS011;520;50.932;6.962;2024-01-25T13:43:15;12.40;;;5.20;;
1062;SDS011;520;50.932;6.962;2024-01-25T13:45:45;13.93;;;4.33;;
1062;SDS011;520;50.932;6.962;2024-01-25T13:48:15;17.43;;;4.43;;
1062;SDS011;520;50.932;6.962;2024-01-25T13:50:44;15.57;;;5.83;;
1062;SDS011;520;50.932;6.962;2024-01-25T13:53:11;17.20;;;5.10;;
1062;SDS011;520;50.932;6.962;2024-01-25T13:55:39;16.73;;;7.03;;
1062;SDS011;520;50.932;6.962;2024-01-25T13:58:07;10.77;;;4.23;;
1062;SDS011;520;50.932;6.962;2024-01-25T14:00:36;26.03;;;5.20;;
1062;SDS011;520;50.932;6.962;2024-01-25T14:03:04;14.30;;;4.60;;
1062;SDS011;520;50.932;6.962;2024-01-25T14:05:31;11.63;;;4.33;;
1062;SDS011;520;50.932;6.962;2024-01-25T14:07:58;12.83;;;5.30;;
1062;SDS011;520;50.932;6.962;2024-01-25T14:10:26;11.67;;;4.70;;
1062;SDS011;520;50.932;6.962;2024-01-25T14:12:54;9.93;;;4.40;;
1062;SDS011;520;50.932;6.962;2024-01-25T14:15:21;16.27;;;4.60;;
1062;SDS011;520;50.932;6.962;2024-01-25T14:17:48;12.50;;;5.27;;
1062;SDS011;520;50.932;6.962;2024-01-25T14:20:17;15.07;;;4.60;;
1062;SDS011;520;50.932;6.962;2024-01-25T14:22:44;19.33;;;4.77;;
1062;SDS011;520;50.932;6.962;2024-01-25T14:25:12;15.53;;;4.33;;
1062;SDS011;520;50.932;6.962;2024-01-25T14:27:39;12.40;;;4.30;;
1062;SDS011;520;50.932;6.962;2024-01-25T14:30:07;11.57;;;4.20;;
1062;SDS011;520;50.932;6.962;2024-01-25T14:32:35;18.23;;;5.47;;
1062;SDS011;520;50.932;6.962;2024-01-25T14:35:08;10.77;;;4.30;;
1062;SDS011;520;50.932;6.962;2024-01-25T14:37:35;17.00;;;3.90;;
1062;SDS011;520;50.932;6.962;2024-01-25T14:40:04;21.57;;;7.57;;
1062;SDS011;520;50.932;6.962;2024-01-25T14:42:40;11.37;;;4.53;;
1062;SDS011;520;50.932;6.962;2024-01-25T14:45:17;21.23;;;4.53;;
1062;SDS011;520;50.932;6.962;2024-01-25T14:47:48;13.03;;;4.27;;
1062;SDS011;520;50.932;6.962;2024-01-25T14:50:15;13.80;;;4.13;;
1062;SDS011;520;50.932;6.962;2024-01-25T14:52:45;14.40;;;5.83;;
1062;SDS011;520;50.932;6.962;2024-01-25T14:55:12;12.23;;;4.10;;
1062;SDS011;520;50.932;6.962;2024-01-25T14:57:40;34.37;;;9.13;;
1062;SDS011;520;50.932;6.962;2024-01-25T15:00:09;20.17;;;5.10;;
1062;SDS011;520;50.932;6.962;2024-01-25T15:02:42;10.17;;;4.83;;
1062;SDS011;520;50.932;6.962;2024-01-25T15:05:09;19.60;;;4.57;;
1062;SDS011;520;50.932;6.962;2024-01-25T15:07:38;14.10;;;5.90;;
1062;SDS011;520;50.932;6.962;2024-01-25T15:10:06;15.40;;;4.53;;
1062;SDS011;520;50.932;6.962;2024-01-25T15:12:37;19.87;;;4.20;;
1062;SDS011;520;50.932;6.962;2024-01-25T15:15:07;9.63;;;4.07;;
1062;SDS011;520;50.932;6.962;2024-01-25T15:17:35;16.30;;;4.33;;
1062;SDS011;520;50.932;6.962;2024-01-25T15:20:04;13.53;;;3.80;;
1062;SDS011;520;50.932;6.962;2024-01-25T15:22:32;13.90;;;4.57;;
1062;SDS011;520;50.932;6.962;2024-01-25T15:25:00;10.93;;;3.67;;
1062;SDS011;520;50.932;6.962;2024-01-25T15:27:27;17.50;;;7.53;;
1062;SDS011;520;50.932;6.962;2024-01-25T15:29:54;18.07;;;5.30;;
1062;SDS011;520;50.932;6.962;2024-01-25T15:32:22;17.50;;;4.70;;